createdAt,value
2019-01-16T00:01:14.007Z,2.57
2019-01-16T00:04:07.995Z,1.57
2019-01-16T00:06:51.218Z,4.57
2019-01-16T00:09:39.265Z,2.43
2019-01-16T00:12:29.082Z,3.97
2019-01-16T00:15:06.895Z,2.77
2019-01-16T00:17:53.360Z,4.53
2019-01-16T00:20:41.461Z,2.10
2019-01-16T00:23:27.927Z,1.77
2019-01-16T00:26:06.478Z,2.53
2019-01-16T00:28:54.581Z,2.63
2019-01-16T00:31:35.716Z,4.00
2019-01-16T00:34:23.885Z,1.43
2019-01-16T00:37:05.035Z,2.40
2019-01-16T00:39:51.885Z,2.20
2019-01-16T00:42:58.260Z,4.97
2019-01-16T00:45:44.574Z,2.23
2019-01-16T00:48:32.690Z,3.20
2019-01-16T00:51:21.889Z,4.03
2019-01-16T00:54:09.978Z,2.83
2019-01-16T00:57:07.785Z,4.60
2019-01-16T01:00:00.358Z,2.43
2019-01-16T01:02:42.546Z,2.53
2019-01-16T01:05:23.641Z,2.67
2019-01-16T01:08:10.321Z,1.33
2019-01-16T01:10:49.562Z,3.47
2019-01-16T01:13:43.388Z,2.67
2019-01-16T01:16:26.849Z,1.50
2019-01-16T01:19:26.855Z,1.90
2019-01-16T01:22:23.708Z,3.07
2019-01-16T01:25:14.550Z,2.07
2019-01-16T01:28:06.955Z,1.80
2019-01-16T01:31:01.046Z,2.07
2019-01-16T01:33:50.172Z,2.87
2019-01-16T01:36:44.010Z,3.87
2019-01-16T01:39:30.604Z,2.60
2019-01-16T01:42:12.927Z,2.00
2019-01-16T01:45:00.872Z,2.53
2019-01-16T01:47:57.981Z,1.70
2019-01-16T01:50:50.642Z,1.40
2019-01-16T01:53:56.917Z,3.83
2019-01-16T01:56:41.823Z,2.73
2019-01-16T01:59:48.260Z,1.83
2019-01-16T02:02:39.090Z,2.67
2019-01-16T02:05:27.287Z,1.60
2019-01-16T02:08:09.047Z,3.03
2019-01-16T02:10:50.606Z,4.10
2019-01-16T02:13:44.525Z,3.33
2019-01-16T02:16:31.186Z,3.13
2019-01-16T02:19:29.476Z,3.53
2019-01-16T02:22:15.994Z,3.50
2019-01-16T02:25:04.513Z,1.30
2019-01-16T02:27:42.705Z,1.30
2019-01-16T02:30:30.257Z,4.03
2019-01-16T02:33:30.466Z,3.70
2019-01-16T02:36:15.633Z,2.27
2019-01-16T02:39:06.555Z,2.43
2019-01-16T02:41:53.121Z,2.53
2019-01-16T02:44:44.081Z,2.47
2019-01-16T02:47:28.448Z,2.73
2019-01-16T02:50:08.742Z,3.87
2019-01-16T02:53:07.961Z,2.63
2019-01-16T02:55:58.866Z,3.13
2019-01-16T02:58:45.794Z,2.07
2019-01-16T03:01:36.929Z,2.53
2019-01-16T03:04:23.817Z,3.17
2019-01-16T03:07:10.623Z,1.73
2019-01-16T03:09:58.702Z,1.10
2019-01-16T03:12:45.491Z,2.70
2019-01-16T03:15:36.625Z,1.60
2019-01-16T03:21:42.740Z,1.30
2019-01-16T03:24:22.660Z,2.87
2019-01-16T03:27:22.689Z,2.87
2019-01-16T03:30:22.983Z,1.70
2019-01-16T03:33:09.306Z,1.83
2019-01-16T03:36:15.368Z,2.40
2019-01-16T03:39:06.230Z,1.47
2019-01-16T03:41:56.764Z,1.70
2019-01-16T03:45:00.096Z,1.87
2019-01-16T03:48:06.093Z,2.47
2019-01-16T03:51:00.576Z,1.50
2019-01-16T03:53:48.684Z,2.27
2019-01-16T03:56:35.440Z,1.63
2019-01-16T03:59:20.333Z,2.77
2019-01-16T04:02:08.414Z,1.43
2019-01-16T04:05:02.333Z,0.60
2019-01-16T04:07:49.281Z,1.83
2019-01-16T04:10:49.267Z,1.50
2019-01-16T04:13:40.113Z,2.47
2019-01-16T04:16:34.050Z,1.30
2019-01-16T04:19:21.894Z,2.17
2019-01-16T04:22:10.114Z,1.20
2019-01-16T04:24:47.461Z,1.77
2019-01-16T04:27:27.660Z,1.57
2019-01-16T04:30:21.598Z,2.37
2019-01-16T04:33:18.568Z,1.37
2019-01-16T04:36:04.520Z,2.87
2019-01-16T04:38:49.737Z,1.00
2019-01-16T04:41:47.161Z,1.07
2019-01-16T04:44:34.146Z,3.10
2019-01-16T04:47:21.005Z,2.80
2019-01-16T04:50:04.545Z,1.77
2019-01-16T04:52:47.793Z,1.67
2019-01-16T04:55:34.748Z,2.20
2019-01-16T04:58:24.503Z,2.43
2019-01-16T05:01:15.630Z,2.60
2019-01-16T05:04:21.858Z,1.37
2019-01-16T05:07:08.528Z,1.80
2019-01-16T05:10:05.622Z,2.30
2019-01-16T05:13:02.583Z,2.00
2019-01-16T05:15:42.677Z,1.60
2019-01-16T05:18:41.471Z,2.00
2019-01-16T05:21:26.957Z,3.07
2019-01-16T05:24:10.902Z,2.07
2019-01-16T05:26:58.973Z,1.53
2019-01-16T05:29:45.814Z,68.53
2019-01-16T05:32:46.037Z,110.43
2019-01-16T05:35:25.779Z,89.13
2019-01-16T05:38:12.273Z,68.47
2019-01-16T05:41:03.161Z,61.47
2019-01-16T05:43:59.800Z,59.37
2019-01-16T05:46:56.902Z,67.03
2019-01-16T05:49:34.278Z,55.87
2019-01-16T05:52:17.089Z,60.10
2019-01-16T05:55:14.467Z,54.20
2019-01-16T05:58:05.306Z,61.07
2019-01-16T06:01:00.513Z,48.60
2019-01-16T06:03:46.977Z,44.70
2019-01-16T06:06:32.512Z,43.63
2019-01-16T06:09:19.064Z,43.10
2019-01-16T06:12:06.266Z,45.97
2019-01-16T06:15:03.494Z,46.80
2019-01-16T06:17:50.325Z,35.43
2019-01-16T06:20:36.870Z,40.40
2019-01-16T06:23:37.232Z,42.53
2019-01-16T06:26:14.680Z,31.67
2019-01-16T06:29:01.487Z,40.83
2019-01-16T06:31:49.515Z,37.97
2019-01-16T06:34:29.127Z,40.00
2019-01-16T06:37:19.994Z,36.47
2019-01-16T06:40:11.100Z,33.97
2019-01-16T06:43:14.283Z,31.97
2019-01-16T06:46:20.506Z,27.40
2019-01-16T06:49:14.431Z,31.13
2019-01-16T06:52:05.299Z,33.80
2019-01-16T06:55:05.232Z,28.73
2019-01-16T06:57:59.261Z,26.67
2019-01-16T07:00:46.214Z,35.03
2019-01-16T07:03:37.564Z,26.90
2019-01-16T07:06:28.593Z,25.60
2019-01-16T07:09:13.560Z,26.13
2019-01-16T07:12:04.421Z,22.80
2019-01-16T07:14:46.790Z,26.43
2019-01-16T07:17:40.762Z,24.00
2019-01-16T07:20:28.858Z,29.20
2019-01-16T07:23:15.533Z,25.33
2019-01-16T07:26:06.679Z,21.50
2019-01-16T07:28:48.021Z,21.60
2019-01-16T07:31:30.551Z,23.37
2019-01-16T07:34:10.298Z,20.37
2019-01-16T07:37:10.167Z,20.33
2019-01-16T07:39:50.141Z,19.97
2019-01-16T07:42:36.975Z,22.33
2019-01-16T07:45:24.984Z,15.77
2019-01-16T07:48:16.113Z,22.37
2019-01-16T07:51:13.267Z,16.27
2019-01-16T07:53:55.782Z,16.97
2019-01-16T07:56:52.950Z,17.47
2019-01-16T07:59:39.002Z,15.27
2019-01-16T08:02:29.904Z,16.33
2019-01-16T08:05:27.298Z,18.50
2019-01-16T08:08:11.868Z,17.63
2019-01-16T08:10:52.399Z,12.77
2019-01-16T08:13:55.409Z,15.73
2019-01-16T08:16:49.626Z,14.87
2019-01-16T08:19:40.511Z,14.40
2019-01-16T08:22:27.654Z,13.47
2019-01-16T08:25:15.712Z,12.70
2019-01-16T08:27:56.287Z,13.33
2019-01-16T08:30:44.390Z,13.13
2019-01-16T08:33:35.448Z,13.87
2019-01-16T08:36:35.666Z,13.20
2019-01-16T08:39:24.509Z,14.70
2019-01-16T08:42:59.974Z,11.47
2019-01-16T08:45:51.674Z,13.00
2019-01-16T08:48:33.873Z,11.70
2019-01-16T08:51:20.907Z,13.23
2019-01-16T08:54:15.037Z,13.73
2019-01-16T08:56:57.124Z,10.40
2019-01-16T09:00:03.351Z,10.33
2019-01-16T09:03:00.289Z,12.27
2019-01-16T09:05:57.374Z,12.57
2019-01-16T09:08:45.473Z,10.33
2019-01-16T09:11:32.224Z,9.13
2019-01-16T09:14:20.324Z,9.07
2019-01-16T09:17:08.410Z,10.20
2019-01-16T09:19:56.464Z,11.10
2019-01-16T09:22:47.337Z,10.60
2019-01-16T09:25:34.001Z,10.13
2019-01-16T09:28:19.450Z,10.43
2019-01-16T09:31:10.389Z,6.90
2019-01-16T09:34:07.333Z,8.03
2019-01-16T09:36:54.434Z,8.27
2019-01-16T09:39:41.318Z,7.17
2019-01-16T09:42:28.099Z,7.47
2019-01-16T09:45:22.346Z,9.47
2019-01-16T09:48:10.457Z,8.10
2019-01-16T09:50:52.873Z,8.07
2019-01-16T09:53:45.836Z,6.57
2019-01-16T09:56:31.437Z,6.80
2019-01-16T09:59:22.309Z,6.10
2019-01-16T10:02:08.845Z,6.73
2019-01-16T10:04:56.843Z,5.57
2019-01-16T10:07:35.855Z,4.80
2019-01-16T10:10:40.297Z,6.87
2019-01-16T10:13:30.393Z,6.73
2019-01-16T10:16:17.247Z,7.87
2019-01-16T10:19:05.386Z,7.23
2019-01-16T10:21:41.951Z,6.60
2019-01-16T10:24:35.833Z,4.80
2019-01-16T10:27:18.642Z,6.87
2019-01-16T10:30:22.027Z,5.73
2019-01-16T10:33:15.944Z,5.93
2019-01-16T10:36:02.587Z,7.20
2019-01-16T10:39:05.932Z,6.30
2019-01-16T10:41:52.648Z,6.30
2019-01-16T10:44:37.206Z,4.97
2019-01-16T10:47:19.896Z,7.07
2019-01-16T10:50:06.853Z,4.67
2019-01-16T10:52:57.967Z,6.03
2019-01-16T10:55:38.987Z,7.23
2019-01-16T10:58:36.343Z,4.80
2019-01-16T11:01:14.703Z,5.53
2019-01-16T11:04:21.044Z,6.03
2019-01-16T11:07:15.010Z,4.07
2019-01-16T11:09:56.225Z,3.57
2019-01-16T11:12:47.053Z,6.50
2019-01-16T11:15:37.929Z,5.13
2019-01-16T11:18:24.543Z,4.83
2019-01-16T11:21:15.666Z,4.27
2019-01-16T11:24:09.822Z,5.17
2019-01-16T11:27:07.021Z,4.73
2019-01-16T11:30:10.274Z,3.67
2019-01-16T11:32:57.073Z,4.20
2019-01-16T11:35:54.047Z,4.70
2019-01-16T11:38:50.907Z,5.27
2019-01-16T11:41:44.208Z,3.93
2019-01-16T11:44:26.574Z,5.10
2019-01-16T11:47:17.998Z,2.67
2019-01-16T11:50:09.186Z,5.40
2019-01-16T11:53:05.824Z,3.57
2019-01-16T11:55:59.969Z,3.10
2019-01-16T11:58:54.241Z,2.73
2019-01-16T12:01:48.248Z,4.23
2019-01-16T12:04:24.086Z,4.33
2019-01-16T12:07:07.601Z,2.80
2019-01-16T12:09:55.644Z,4.67
2019-01-16T12:12:36.799Z,3.13
2019-01-16T12:15:34.407Z,2.30
2019-01-16T12:18:21.706Z,4.17
2019-01-16T12:21:09.835Z,3.70
2019-01-16T12:23:50.599Z,4.23
2019-01-16T12:26:54.266Z,3.07
2019-01-16T12:29:35.073Z,3.53
2019-01-16T12:32:21.829Z,5.03
2019-01-16T12:35:08.760Z,3.73
2019-01-16T12:38:11.996Z,3.07
2019-01-16T12:41:02.909Z,3.40
2019-01-16T12:43:53.816Z,4.07
2019-01-16T12:46:40.452Z,2.80
2019-01-16T12:49:36.780Z,2.93
2019-01-16T12:52:24.862Z,3.77
2019-01-16T12:55:27.767Z,3.10
2019-01-16T12:58:18.783Z,4.07
2019-01-16T13:00:57.692Z,2.90
2019-01-16T13:03:41.951Z,3.13
2019-01-16T13:06:28.722Z,3.17
2019-01-16T13:09:08.358Z,3.03
2019-01-16T13:12:02.505Z,3.20
2019-01-16T13:14:45.584Z,2.07
2019-01-16T13:17:36.694Z,3.27
2019-01-16T13:20:20.570Z,3.13
2019-01-16T13:23:17.675Z,3.27
2019-01-16T13:26:04.330Z,3.63
2019-01-16T13:28:53.779Z,5.03
2019-01-16T13:31:39.010Z,3.00
2019-01-16T13:34:25.744Z,4.20
2019-01-16T13:37:02.922Z,3.30
2019-01-16T13:39:40.682Z,3.63
2019-01-16T13:42:35.882Z,2.57
2019-01-16T13:45:24.772Z,2.60
2019-01-16T13:48:04.128Z,3.43
2019-01-16T13:50:50.810Z,3.67
2019-01-16T13:53:45.019Z,2.27
2019-01-16T13:56:53.446Z,3.07
2019-01-16T13:59:44.570Z,3.90
2019-01-16T14:02:31.274Z,3.17
2019-01-16T14:05:09.703Z,2.50
2019-01-16T14:08:02.225Z,3.07
2019-01-16T14:10:48.982Z,3.17
2019-01-16T14:13:35.534Z,4.47
2019-01-16T14:16:23.828Z,6.83
2019-01-16T14:19:06.830Z,23.70
2019-01-16T14:21:53.556Z,38.87
2019-01-16T14:24:41.622Z,25.33
2019-01-16T14:27:27.670Z,32.60
2019-01-16T14:30:16.204Z,25.10
2019-01-16T14:33:22.620Z,23.90
2019-01-16T14:36:13.655Z,17.73
2019-01-16T14:39:10.690Z,37.93
2019-01-16T14:41:58.741Z,21.27
2019-01-16T14:44:50.442Z,22.03
2019-01-16T14:47:36.172Z,14.03
2019-01-16T14:50:30.037Z,26.67
2019-01-16T14:53:18.086Z,11.10
2019-01-16T14:56:06.167Z,16.67
2019-01-16T14:59:12.337Z,17.70
2019-01-16T15:01:59.073Z,16.83
2019-01-16T15:04:48.818Z,19.37
2019-01-16T15:07:36.955Z,11.67
2019-01-16T15:10:20.034Z,19.63
2019-01-16T15:13:08.044Z,10.57
2019-01-16T15:15:56.161Z,10.30
2019-01-16T15:18:44.264Z,13.83
2019-01-16T15:21:41.155Z,11.67
2019-01-16T15:24:33.617Z,19.77
2019-01-16T15:27:28.241Z,15.80
2019-01-16T15:30:18.300Z,17.10
2019-01-16T15:33:21.556Z,13.00
2019-01-16T15:36:12.865Z,12.13
2019-01-16T15:38:52.718Z,10.63
2019-01-16T15:41:44.368Z,12.40
2019-01-16T15:44:29.373Z,10.90
2019-01-16T15:47:16.258Z,14.40
2019-01-16T15:50:02.915Z,11.37
2019-01-16T15:52:49.623Z,8.77
2019-01-16T15:55:37.758Z,14.63
2019-01-16T15:58:32.020Z,11.33
2019-01-16T16:01:25.982Z,9.20
2019-01-16T16:04:17.101Z,7.93
2019-01-16T16:07:05.208Z,8.77
2019-01-16T16:09:56.651Z,11.10
2019-01-16T16:12:56.908Z,20.80
2019-01-16T16:15:50.396Z,11.83
2019-01-16T16:18:47.659Z,5.77
2019-01-16T16:21:35.549Z,13.10
2019-01-16T16:24:15.983Z,11.33
2019-01-16T16:30:31.854Z,11.17
2019-01-16T16:33:13.200Z,6.67
2019-01-16T16:36:01.639Z,17.53
2019-01-16T16:38:55.830Z,9.53
2019-01-16T16:41:42.509Z,6.77
2019-01-16T16:44:19.180Z,8.07
2019-01-16T16:47:11.929Z,5.33
2019-01-16T16:49:58.583Z,5.77
2019-01-16T16:52:52.748Z,6.37
2019-01-16T16:55:39.214Z,7.97
2019-01-16T16:58:26.016Z,8.63
2019-01-16T17:01:06.212Z,10.87
2019-01-16T17:03:54.315Z,9.87
2019-01-16T17:07:00.372Z,7.57
2019-01-16T17:09:47.296Z,6.33
2019-01-16T17:12:47.714Z,5.17
2019-01-16T17:15:28.877Z,6.60
2019-01-16T17:18:15.569Z,9.67
2019-01-16T17:21:02.131Z,9.33
2019-01-16T17:23:45.948Z,7.10
2019-01-16T17:26:30.536Z,8.90
2019-01-16T17:29:17.472Z,19.03
2019-01-16T17:32:00.012Z,9.33
2019-01-16T17:34:40.973Z,11.95
2019-01-16T17:37:41.236Z,6.53
2019-01-16T17:40:41.521Z,7.17
2019-01-16T17:43:32.677Z,15.20
2019-01-16T17:46:23.772Z,9.07
2019-01-16T17:49:11.855Z,6.17
2019-01-16T17:51:56.953Z,13.30
2019-01-16T17:54:47.853Z,14.20
2019-01-16T17:57:27.676Z,22.70
2019-01-16T18:00:31.217Z,11.87
2019-01-16T18:03:31.515Z,11.83
2019-01-16T18:06:32.196Z,11.47
2019-01-16T18:09:36.790Z,10.70
2019-01-16T18:12:30.764Z,7.77
2019-01-16T18:15:17.121Z,15.37
2019-01-16T18:18:11.236Z,12.30
2019-01-16T18:21:01.665Z,20.00
2019-01-16T18:23:55.278Z,11.23
2019-01-16T18:26:43.374Z,31.80
2019-01-16T18:29:31.429Z,13.00
2019-01-16T18:32:18.276Z,9.13
2019-01-16T18:34:56.132Z,16.57
2019-01-16T18:37:46.925Z,9.30
2019-01-16T18:40:47.196Z,9.30
2019-01-16T18:43:53.540Z,14.97
2019-01-16T18:46:44.781Z,18.00
2019-01-16T18:49:31.644Z,13.43
2019-01-16T18:52:27.860Z,14.27
2019-01-16T18:55:14.755Z,9.83
2019-01-16T18:58:09.009Z,10.67
2019-01-16T19:00:48.775Z,16.00
2019-01-16T19:03:29.196Z,10.80
2019-01-16T19:06:15.880Z,10.53
2019-01-16T19:08:58.988Z,15.43
2019-01-16T19:11:45.837Z,8.63
2019-01-16T19:14:32.656Z,5.60
2019-01-16T19:17:10.248Z,6.27
2019-01-16T19:20:04.492Z,8.00
2019-01-16T19:22:41.889Z,12.03
2019-01-16T19:25:36.045Z,12.30
2019-01-16T19:28:17.420Z,7.33
2019-01-16T19:31:08.342Z,14.50
2019-01-16T19:34:11.605Z,15.37
2019-01-16T19:36:58.210Z,8.20
2019-01-16T19:39:55.177Z,12.03
2019-01-16T19:42:41.808Z,8.90
2019-01-16T19:45:29.344Z,10.23
2019-01-16T19:48:23.534Z,9.33
2019-01-16T19:51:11.624Z,6.23
2019-01-16T19:54:05.589Z,6.10
2019-01-16T19:57:02.557Z,8.43
2019-01-16T19:59:53.718Z,12.17
2019-01-16T20:02:41.726Z,9.73
2019-01-16T20:05:41.063Z,9.43
2019-01-16T20:08:21.614Z,8.90
2019-01-16T20:11:16.075Z,12.77
2019-01-16T20:14:02.870Z,6.50
2019-01-16T20:16:42.787Z,5.70
2019-01-16T20:19:30.878Z,10.07
2019-01-16T20:22:27.231Z,5.67
2019-01-16T20:25:27.630Z,10.80
2019-01-16T20:28:16.819Z,8.83
2019-01-16T20:30:56.360Z,8.83
2019-01-16T20:33:44.446Z,9.23
2019-01-16T20:36:31.482Z,7.97
2019-01-16T20:39:31.697Z,7.43
2019-01-16T20:42:17.310Z,9.03
2019-01-16T20:45:05.929Z,10.03
2019-01-16T20:47:46.712Z,8.07
2019-01-16T20:50:43.790Z,8.57
2019-01-16T20:53:34.919Z,11.77
2019-01-16T20:56:20.659Z,7.30
2019-01-16T20:59:07.109Z,7.80
2019-01-16T21:01:55.146Z,8.07
2019-01-16T21:04:58.482Z,7.20
2019-01-16T21:07:45.565Z,6.43
2019-01-16T21:10:28.883Z,6.70
2019-01-16T21:13:08.442Z,5.90
2019-01-16T21:15:54.984Z,7.73
2019-01-16T21:18:43.087Z,6.23
2019-01-16T21:21:18.176Z,4.07
2019-01-16T21:24:07.307Z,5.53
2019-01-16T21:27:10.302Z,7.50
2019-01-16T21:29:54.493Z,4.73
2019-01-16T21:32:41.881Z,7.23
2019-01-16T21:35:33.033Z,4.90
2019-01-16T21:38:23.929Z,5.03
2019-01-16T21:41:18.392Z,6.63
2019-01-16T21:44:09.403Z,4.00
2019-01-16T21:47:09.426Z,4.17
2019-01-16T21:49:47.895Z,7.27
2019-01-16T21:52:26.021Z,6.23
2019-01-16T21:55:15.213Z,6.03
2019-01-16T21:58:06.238Z,4.30
2019-01-16T22:00:52.764Z,5.10
2019-01-16T22:03:39.303Z,4.60
2019-01-16T22:09:48.867Z,2.60
2019-01-16T22:12:36.979Z,4.20
2019-01-16T22:15:32.534Z,3.57
2019-01-16T22:18:31.704Z,4.87
2019-01-16T22:21:27.468Z,3.63
2019-01-16T22:24:14.194Z,5.27
2019-01-16T22:27:17.608Z,2.83
2019-01-16T22:30:17.974Z,2.97
2019-01-16T22:33:01.849Z,3.30
2019-01-16T22:35:49.873Z,3.57
2019-01-16T22:38:27.754Z,3.80
2019-01-16T22:41:27.675Z,4.63
2019-01-16T22:44:14.847Z,3.80
2019-01-16T22:47:17.995Z,2.53
2019-01-16T22:50:08.534Z,3.63
2019-01-16T22:53:02.474Z,3.87
2019-01-16T22:55:46.325Z,2.87
2019-01-16T22:58:43.296Z,3.37
2019-01-16T23:01:29.853Z,3.20
2019-01-16T23:04:32.903Z,3.90
2019-01-16T23:07:23.974Z,2.83
2019-01-16T23:10:06.835Z,3.47
2019-01-16T23:12:54.948Z,3.53
2019-01-16T23:15:55.293Z,2.00
2019-01-16T23:18:38.449Z,1.50
2019-01-16T23:21:19.397Z,1.40
2019-01-16T23:24:04.808Z,6.67
2019-01-16T23:26:51.506Z,2.27
2019-01-16T23:29:29.270Z,2.37
2019-01-16T23:32:16.115Z,4.00
2019-01-16T23:35:02.663Z,2.10
2019-01-16T23:37:53.809Z,1.77
2019-01-16T23:40:47.050Z,3.30
2019-01-16T23:43:35.120Z,2.60
2019-01-16T23:46:22.119Z,1.50
2019-01-16T23:49:13.234Z,2.20
2019-01-16T23:52:04.286Z,1.90
2019-01-16T23:54:48.291Z,2.80
2019-01-16T23:57:24.329Z,1.60
